Time;durP1;ratioP1;P1;durP2;ratioP2;P2;SDS_P1;SDS_P2;PMS_P1;PMS_P2;Temp;Humidity;BMP_temperature;BMP_pressure;BME280_temperature;BME280_humidity;BME280_pressure;Samples;Min_cycle;Max_cycle;Signal;HPM_P1;HPM_P2
2022/07/24 00:01:59;;;;;;;7.15;3.50;;;15.60;99.90;;;;;;4990250;28;20041;-77
2022/07/24 00:04:25;;;;;;;7.30;3.03;;;15.50;99.90;;;;;;5002131;28;20433;-77
2022/07/24 00:06:51;;;;;;;7.00;3.03;;;15.50;99.90;;;;;;5001372;28;20128;-77
2022/07/24 00:09:17;;;;;;;6.03;2.90;;;15.40;99.90;;;;;;4993554;28;20121;-77
2022/07/24 00:11:43;;;;;;;6.70;3.00;;;15.50;99.90;;;;;;5000416;28;20077;-77
2022/07/24 00:14:08;;;;;;;5.97;2.58;;;15.40;99.90;;;;;;5005355;28;20049;-77
2022/07/24 00:16:34;;;;;;;5.72;2.80;;;15.40;99.90;;;;;;4999489;28;20050;-77
2022/07/24 00:18:59;;;;;;;5.75;2.90;;;15.40;99.90;;;;;;4999474;28;20056;-77
2022/07/24 00:21:25;;;;;;;6.00;2.92;;;15.40;99.90;;;;;;5009528;28;20045;-77
2022/07/24 00:23:51;;;;;;;6.50;3.00;;;15.40;99.90;;;;;;5000467;28;20038;-77
2022/07/24 00:26:16;;;;;;;4.93;2.85;;;15.40;99.90;;;;;;4996009;28;20426;-77
2022/07/24 00:28:42;;;;;;;5.93;3.35;;;15.50;99.90;;;;;;5004312;28;20108;-77
2022/07/24 00:31:08;;;;;;;6.60;2.97;;;15.30;99.90;;;;;;5000916;28;20054;-78
2022/07/24 00:33:34;;;;;;;5.78;2.90;;;15.30;99.90;;;;;;5007234;28;20133;-77
2022/07/24 00:35:59;;;;;;;4.45;2.75;;;15.30;99.90;;;;;;5003608;28;20413;-77
2022/07/24 00:38:25;;;;;;;5.65;2.83;;;15.30;99.90;;;;;;5011800;28;20188;-77
2022/07/24 00:40:50;;;;;;;8.23;3.08;;;15.30;99.90;;;;;;4990647;28;20043;-77
2022/07/24 00:43:16;;;;;;;4.53;2.58;;;15.30;99.90;;;;;;5006494;28;20057;-77
2022/07/24 00:45:43;;;;;;;5.80;3.22;;;15.40;99.90;;;;;;5033219;28;20060;-77
2022/07/24 00:48:09;;;;;;;5.05;2.67;;;15.20;99.90;;;;;;5029281;28;20120;-78
2022/07/24 00:50:36;;;;;;;5.90;3.08;;;15.30;99.90;;;;;;5001673;28;20536;-77
2022/07/24 00:53:02;;;;;;;5.35;2.92;;;15.20;99.90;;;;;;5006628;28;20053;-77
2022/07/24 00:55:28;;;;;;;5.82;2.85;;;15.20;99.90;;;;;;5010875;28;20125;-77
2022/07/24 00:57:54;;;;;;;4.35;2.47;;;15.20;99.90;;;;;;5023675;28;20556;-77
2022/07/24 01:00:21;;;;;;;5.97;3.00;;;15.20;99.90;;;;;;5000429;28;20073;-77
2022/07/24 01:02:48;;;;;;;4.53;2.80;;;15.20;99.90;;;;;;5004441;28;20120;-77
2022/07/24 01:05:14;;;;;;;6.13;3.17;;;15.20;99.90;;;;;;5016310;28;20061;-77
2022/07/24 01:07:40;;;;;;;4.60;2.33;;;15.20;99.90;;;;;;5010582;28;20397;-77
2022/07/24 01:10:06;;;;;;;6.10;3.03;;;15.20;99.90;;;;;;5021115;28;20132;-77
2022/07/24 01:12:34;;;;;;;4.90;3.30;;;15.20;99.90;;;;;;5032841;28;20037;-78
2022/07/24 01:15:00;;;;;;;5.38;2.97;;;15.20;99.90;;;;;;5032136;28;20129;-77
2022/07/24 01:17:34;;;;;;;5.63;3.47;;;15.10;99.90;;;;;;5019920;28;20113;-77
2022/07/24 01:20:00;;;;;;;5.90;3.45;;;15.20;99.90;;;;;;5018117;28;20120;-77
2022/07/24 01:22:27;;;;;;;5.10;3.53;;;15.20;99.90;;;;;;5033107;28;20540;-77
2022/07/24 01:24:54;;;;;;;5.53;3.35;;;15.20;99.90;;;;;;5022993;28;20041;-77
2022/07/24 01:27:21;;;;;;;5.40;3.63;;;15.20;99.90;;;;;;4993403;28;20385;-77
2022/07/24 01:29:47;;;;;;;5.20;3.35;;;15.20;99.90;;;;;;5014587;28;20037;-77
2022/07/24 01:32:13;;;;;;;5.03;3.00;;;15.20;99.90;;;;;;5014584;28;20049;-77
2022/07/24 01:34:40;;;;;;;6.88;3.40;;;15.30;99.90;;;;;;5006670;28;20049;-77
2022/07/24 01:37:06;;;;;;;6.82;3.92;;;15.30;99.90;;;;;;5006430;28;20065;-77
2022/07/24 01:39:32;;;;;;;6.90;3.78;;;15.20;99.90;;;;;;5005083;28;20073;-77
2022/07/24 01:41:57;;;;;;;8.15;3.30;;;15.20;99.90;;;;;;5030726;28;20084;-77
2022/07/24 01:44:24;;;;;;;7.78;3.40;;;15.30;99.90;;;;;;5029456;28;20057;-77
2022/07/24 01:46:49;;;;;;;6.10;3.55;;;15.20;99.90;;;;;;4999294;28;20401;-77
2022/07/24 01:49:15;;;;;;;6.13;3.47;;;15.20;99.90;;;;;;5019461;28;20037;-77
2022/07/24 01:51:41;;;;;;;5.28;3.40;;;15.20;99.90;;;;;;5019376;28;20082;-77
2022/07/24 01:54:06;;;;;;;6.70;3.70;;;15.20;99.90;;;;;;5010459;28;20049;-77
2022/07/24 01:56:33;;;;;;;6.78;3.47;;;15.20;99.90;;;;;;5022818;28;20095;-77
2022/07/24 01:58:58;;;;;;;8.32;3.38;;;15.10;99.90;;;;;;4995779;28;20822;-77
2022/07/24 02:01:26;;;;;;;5.75;3.67;;;15.20;99.90;;;;;;5007261;28;20053;-77
2022/07/24 02:03:51;;;;;;;5.60;3.58;;;15.20;99.90;;;;;;5023800;28;20037;-77
2022/07/24 02:06:17;;;;;;;5.70;2.92;;;15.10;99.90;;;;;;5001376;28;20413;-77
2022/07/24 02:08:44;;;;;;;6.75;3.38;;;15.20;99.90;;;;;;5022916;28;20077;-77
2022/07/24 02:11:10;;;;;;;6.05;3.30;;;15.10;99.90;;;;;;5003304;28;20123;-77
2022/07/24 02:13:36;;;;;;;6.97;3.85;;;15.20;99.90;;;;;;5022595;28;20034;-77
2022/07/24 02:16:02;;;;;;;4.93;2.95;;;15.20;99.90;;;;;;5004302;28;20049;-77
2022/07/24 02:18:27;;;;;;;6.45;3.70;;;15.20;99.90;;;;;;5001886;28;20041;-77
2022/07/24 02:20:53;;;;;;;5.18;3.55;;;15.10;99.90;;;;;;5025683;28;20038;-77
2022/07/24 02:23:19;;;;;;;6.15;3.35;;;15.20;99.90;;;;;;4995213;28;20056;-77
2022/07/24 02:25:49;;;;;;;6.57;3.67;;;15.50;99.90;;;;;;5007446;28;20045;-77
2022/07/24 02:28:15;;;;;;;6.15;3.78;;;15.20;99.90;;;;;;5019366;28;20054;-77
2022/07/24 02:30:41;;;;;;;5.43;3.80;;;15.20;99.90;;;;;;5021838;28;20071;-77
2022/07/24 02:33:08;;;;;;;6.82;3.78;;;15.20;99.90;;;;;;5023195;28;20042;-77
2022/07/24 02:35:34;;;;;;;5.68;3.60;;;15.20;99.90;;;;;;5029606;28;20055;-77
2022/07/24 02:38:00;;;;;;;6.75;3.55;;;15.20;99.90;;;;;;4995892;28;20051;-77
2022/07/24 02:40:26;;;;;;;7.25;4.35;;;15.20;99.90;;;;;;5012289;28;20050;-77
2022/07/24 02:42:52;;;;;;;6.95;3.78;;;15.50;99.90;;;;;;5001201;28;20036;-77
2022/07/24 02:45:18;;;;;;;7.18;3.90;;;15.20;99.90;;;;;;5002372;28;20065;-77
2022/07/24 02:47:55;;;;;;;7.72;4.18;;;15.20;99.90;;;;;;5004102;28;20068;-77
2022/07/24 02:50:23;;;;;;;7.30;4.45;;;15.20;99.90;;;;;;4992441;28;20046;-77
2022/07/24 02:52:49;;;;;;;5.82;4.30;;;15.20;99.90;;;;;;5000907;28;20402;-77
2022/07/24 02:55:16;;;;;;;7.50;4.13;;;15.10;99.90;;;;;;4997849;28;20034;-77
2022/07/24 02:57:41;;;;;;;7.40;4.38;;;15.20;99.90;;;;;;5004212;28;20038;-77
2022/07/24 03:00:11;;;;;;;6.60;4.00;;;15.60;99.90;;;;;;4998137;28;20072;-77
2022/07/24 03:02:36;;;;;;;6.20;4.50;;;15.20;99.90;;;;;;4996638;28;20050;-77
2022/07/24 03:05:04;;;;;;;7.20;4.78;;;15.30;99.90;;;;;;4998183;28;20100;-77
2022/07/24 03:07:29;;;;;;;7.80;4.30;;;15.20;99.90;;;;;;5000910;28;20113;-77
2022/07/24 03:09:55;;;;;;;7.93;5.20;;;15.20;99.90;;;;;;4993113;28;20470;-77
2022/07/24 03:12:20;;;;;;;8.30;4.38;;;15.20;99.90;;;;;;4988800;28;20046;-77
2022/07/24 03:14:46;;;;;;;7.55;3.97;;;15.20;99.90;;;;;;4996196;28;20056;-77
2022/07/24 03:17:12;;;;;;;9.30;4.88;;;15.20;99.90;;;;;;4998003;28;20042;-77
2022/07/24 03:19:38;;;;;;;9.55;4.82;;;15.20;99.90;;;;;;4997797;28;20046;-77
2022/07/24 03:22:03;;;;;;;9.50;5.18;;;15.20;99.90;;;;;;4991103;28;20540;-77
2022/07/24 03:24:29;;;;;;;7.97;5.65;;;15.20;99.90;;;;;;4992348;28;20057;-77
2022/07/24 03:26:54;;;;;;;6.13;4.38;;;15.30;99.90;;;;;;5003776;28;20042;-77
2022/07/24 03:29:20;;;;;;;8.18;5.50;;;15.10;99.90;;;;;;5002200;28;20045;-77
2022/07/24 03:31:46;;;;;;;8.65;4.80;;;15.20;99.90;;;;;;4997452;28;20884;-77
2022/07/24 03:34:12;;;;;;;6.45;4.75;;;15.40;99.90;;;;;;4995296;28;20509;-77
2022/07/24 03:36:37;;;;;;;8.13;5.55;;;15.10;99.90;;;;;;5003463;28;20050;-77
2022/07/24 03:39:04;;;;;;;7.07;5.00;;;15.20;99.90;;;;;;4995639;28;20065;-77
2022/07/24 03:41:30;;;;;;;7.75;5.30;;;15.10;99.90;;;;;;4994335;28;20517;-77
2022/07/24 03:43:56;;;;;;;7.60;5.20;;;15.10;99.90;;;;;;4999946;28;20054;-77
2022/07/24 03:46:21;;;;;;;7.03;4.85;;;15.20;99.90;;;;;;5016543;28;20115;-77
2022/07/24 03:48:47;;;;;;;8.45;5.22;;;15.20;99.90;;;;;;5027428;28;20042;-77
2022/07/24 03:51:13;;;;;;;7.03;4.78;;;15.20;99.90;;;;;;5009300;28;20176;-77
2022/07/24 03:53:38;;;;;;;7.60;5.07;;;15.20;99.90;;;;;;5016981;28;20050;-77
2022/07/24 03:56:06;;;;;;;9.63;5.47;;;15.20;99.90;;;;;;5017776;28;20049;-77
2022/07/24 03:58:32;;;;;;;8.05;5.18;;;15.20;99.90;;;;;;5016645;28;20036;-77
2022/07/24 04:00:57;;;;;;;7.47;5.25;;;15.20;99.90;;;;;;5011460;28;20060;-77
2022/07/24 04:03:23;;;;;;;7.43;5.38;;;15.20;99.90;;;;;;5026397;28;20263;-77
2022/07/24 04:05:49;;;;;;;7.63;5.75;;;15.20;99.90;;;;;;5003897;28;20207;-76
2022/07/24 04:08:14;;;;;;;10.60;5.93;;;15.20;99.90;;;;;;4998874;28;20052;-77
2022/07/24 04:10:40;;;;;;;6.93;5.00;;;15.30;99.90;;;;;;5019733;28;20045;-77
2022/07/24 04:13:05;;;;;;;7.55;5.32;;;15.50;99.90;;;;;;5010898;28;21717;-77
2022/07/24 04:15:31;;;;;;;7.60;5.38;;;15.30;99.90;;;;;;5019902;28;20447;-77
2022/07/24 04:17:57;;;;;;;7.70;5.15;;;15.30;99.90;;;;;;5020999;28;20045;-77
2022/07/24 04:20:23;;;;;;;9.35;4.60;;;15.30;99.90;;;;;;5000074;28;20052;-77
2022/07/24 04:22:49;;;;;;;8.02;4.80;;;15.30;99.90;;;;;;4989437;28;20053;-77
2022/07/24 04:25:14;;;;;;;7.28;4.72;;;15.30;99.90;;;;;;5002344;28;20041;-77
2022/07/24 04:27:40;;;;;;;6.90;5.07;;;15.30;99.90;;;;;;5001478;28;20034;-77
2022/07/24 04:30:06;;;;;;;9.85;5.05;;;15.20;99.90;;;;;;5007542;28;20177;-77
2022/07/24 04:32:32;;;;;;;7.55;5.05;;;15.20;99.90;;;;;;4996418;28;20067;-77
2022/07/24 04:34:57;;;;;;;11.20;5.55;;;15.40;99.90;;;;;;5017880;28;20461;-77
2022/07/24 04:37:23;;;;;;;8.55;5.15;;;15.20;99.90;;;;;;5017943;28;20479;-77
2022/07/24 04:39:50;;;;;;;8.63;5.38;;;15.20;99.90;;;;;;4998511;28;20045;-77
2022/07/24 04:42:15;;;;;;;8.30;5.47;;;15.20;99.90;;;;;;4991073;28;20461;-77
2022/07/24 04:44:41;;;;;;;7.60;4.97;;;15.30;99.90;;;;;;5016020;28;20050;-77
2022/07/24 04:47:07;;;;;;;10.27;5.15;;;15.30;99.90;;;;;;4993154;28;20076;-77
2022/07/24 04:49:34;;;;;;;7.70;5.50;;;15.30;99.90;;;;;;5025413;28;20041;-77
2022/07/24 04:52:02;;;;;;;8.30;5.10;;;15.30;99.90;;;;;;4983743;28;20049;-77
2022/07/24 04:54:28;;;;;;;8.32;5.20;;;15.30;99.90;;;;;;5011057;28;20120;-77
2022/07/24 04:56:54;;;;;;;12.00;5.60;;;15.30;99.90;;;;;;5019492;28;20048;-77
2022/07/24 04:59:19;;;;;;;10.15;5.68;;;15.30;99.90;;;;;;5022524;28;20052;-77
2022/07/24 05:01:45;;;;;;;8.55;5.72;;;15.40;99.90;;;;;;5023764;28;20046;-77
2022/07/24 05:04:12;;;;;;;7.30;5.55;;;15.40;99.90;;;;;;5003363;28;20504;-77
2022/07/24 05:06:38;;;;;;;8.27;5.65;;;15.40;99.90;;;;;;5032863;28;20037;-77
2022/07/24 05:09:05;;;;;;;9.20;5.95;;;15.50;99.90;;;;;;5021709;28;20053;-77
2022/07/24 05:11:30;;;;;;;8.90;6.20;;;15.50;99.90;;;;;;5008076;28;20382;-77
2022/07/24 05:13:56;;;;;;;10.70;6.07;;;15.50;99.90;;;;;;5013232;28;20052;-77
2022/07/24 05:16:22;;;;;;;9.27;5.97;;;15.50;99.90;;;;;;5002046;28;20049;-77
2022/07/24 05:18:47;;;;;;;11.70;6.00;;;15.80;99.90;;;;;;5020737;28;20480;-77
2022/07/24 05:21:14;;;;;;;9.25;5.60;;;15.90;99.90;;;;;;5002315;28;20042;-77
2022/07/24 05:23:40;;;;;;;8.63;5.93;;;16.20;99.90;;;;;;5018341;28;20516;-77
2022/07/24 05:26:05;;;;;;;7.25;5.45;;;15.70;99.90;;;;;;5022352;28;20042;-77
2022/07/24 05:28:32;;;;;;;9.40;5.97;;;15.60;99.90;;;;;;5022074;28;20041;-77
2022/07/24 05:30:57;;;;;;;9.30;6.30;;;15.80;99.90;;;;;;5005350;28;20617;-77
2022/07/24 05:33:26;;;;;;;8.50;5.68;;;15.80;99.90;;;;;;5021985;28;20045;-78
2022/07/24 05:35:52;;;;;;;8.43;5.68;;;15.90;99.90;;;;;;5000900;28;20034;-77
2022/07/24 05:38:17;;;;;;;8.38;5.78;;;16.00;99.90;;;;;;5006350;28;20046;-77
2022/07/24 05:40:43;;;;;;;10.27;6.07;;;16.10;99.90;;;;;;4996045;28;20299;-77
2022/07/24 05:43:10;;;;;;;11.48;6.30;;;16.20;99.90;;;;;;5016548;28;20061;-76
2022/07/24 05:45:36;;;;;;;10.02;6.25;;;16.30;99.90;;;;;;4978655;28;20636;-77
2022/07/24 05:48:01;;;;;;;10.43;5.63;;;16.50;99.90;;;;;;5002966;28;20113;-77
2022/07/24 05:50:27;;;;;;;11.43;6.22;;;16.70;99.90;;;;;;4997753;28;20043;-78
2022/07/24 05:52:53;;;;;;;8.18;5.47;;;16.80;99.90;;;;;;4994787;28;20467;-77
2022/07/24 05:55:18;;;;;;;11.25;6.88;;;16.90;99.90;;;;;;5003078;28;20052;-78
2022/07/24 05:57:47;;;;;;;8.98;6.55;;;17.10;99.90;;;;;;4985933;28;20114;-78
2022/07/24 06:00:18;;;;;;;7.68;5.72;;;17.00;99.90;;;;;;4983110;28;20125;-78
2022/07/24 06:03:04;;;;;;;10.02;6.70;;;17.00;99.90;;;;;;5001320;28;20054;-78
2022/07/24 06:05:30;;;;;;;10.50;6.45;;;16.90;99.90;;;;;;4974320;28;20049;-76
2022/07/24 06:07:55;;;;;;;14.75;6.70;;;16.90;99.90;;;;;;4986698;28;20046;-77
2022/07/24 06:10:21;;;;;;;10.82;6.55;;;17.10;99.90;;;;;;4985832;28;20049;-77
2022/07/24 06:12:46;;;;;;;9.57;6.70;;;16.90;99.90;;;;;;4976734;28;20079;-77
2022/07/24 06:15:12;;;;;;;11.70;7.38;;;16.90;99.90;;;;;;4993789;28;20405;-77
2022/07/24 06:17:38;;;;;;;11.60;7.60;;;17.00;99.90;;;;;;4996352;28;20085;-78
2022/07/24 06:20:05;;;;;;;12.30;7.35;;;17.00;99.90;;;;;;4977643;28;20069;-78
2022/07/24 06:22:31;;;;;;;10.23;7.28;;;17.10;99.90;;;;;;5000114;28;20122;-76
2022/07/24 06:24:57;;;;;;;9.65;7.53;;;17.20;99.90;;;;;;5001171;28;20128;-77
2022/07/24 06:27:22;;;;;;;12.35;7.28;;;17.30;99.90;;;;;;4980282;28;20100;-77
2022/07/24 06:29:48;;;;;;;10.30;8.07;;;17.40;99.90;;;;;;4993417;28;20046;-77
2022/07/24 06:32:13;;;;;;;13.23;8.70;;;17.50;99.90;;;;;;4995139;28;20045;-77
2022/07/24 06:34:39;;;;;;;12.40;9.07;;;17.70;99.90;;;;;;4981103;28;20042;-77
2022/07/24 06:37:05;;;;;;;15.40;10.05;;;17.50;99.90;;;;;;4983405;28;20069;-77
2022/07/24 06:39:30;;;;;;;14.55;8.27;;;17.60;99.90;;;;;;4979263;28;20045;-77
2022/07/24 06:41:56;;;;;;;13.10;8.77;;;17.70;99.90;;;;;;4989298;28;20084;-77
2022/07/24 06:44:22;;;;;;;13.27;8.80;;;17.70;99.90;;;;;;4984414;28;20046;-78
2022/07/24 06:46:48;;;;;;;16.70;10.15;;;17.80;99.90;;;;;;5020605;28;20033;-78
2022/07/24 06:49:14;;;;;;;13.75;10.43;;;17.80;99.90;;;;;;5010550;28;20057;-77
2022/07/24 06:51:40;;;;;;;15.38;10.70;;;17.80;99.90;;;;;;4991965;28;20045;-77
2022/07/24 06:54:06;;;;;;;14.32;9.57;;;17.90;99.90;;;;;;5018974;28;20138;-77
2022/07/24 06:56:31;;;;;;;15.88;11.60;;;18.00;99.90;;;;;;5014348;28;20081;-77
2022/07/24 06:58:59;;;;;;;14.45;11.23;;;18.00;99.90;;;;;;5003812;28;20056;-76
2022/07/24 07:01:25;;;;;;;14.88;11.10;;;18.10;99.90;;;;;;5015016;28;20128;-77
2022/07/24 07:03:52;;;;;;;21.42;11.20;;;18.20;99.90;;;;;;5022552;28;20037;-77
2022/07/24 07:06:18;;;;;;;18.23;11.30;;;18.20;99.90;;;;;;5009438;28;20061;-77
2022/07/24 07:08:44;;;;;;;15.52;10.38;;;18.30;99.90;;;;;;5010280;28;20060;-77
2022/07/24 07:11:09;;;;;;;16.75;10.27;;;18.40;99.90;;;;;;5014682;28;20492;-77
2022/07/24 07:13:35;;;;;;;17.08;10.90;;;18.50;99.90;;;;;;5019435;28;20050;-77
2022/07/24 07:16:01;;;;;;;16.95;11.57;;;18.60;99.90;;;;;;4996874;28;20044;-79
2022/07/24 07:18:26;;;;;;;27.85;13.30;;;18.70;99.90;;;;;;4999251;28;20378;-77
2022/07/24 07:20:53;;;;;;;18.90;12.35;;;18.80;99.90;;;;;;5015831;28;20048;-78
2022/07/24 07:23:21;;;;;;;14.23;11.57;;;19.00;99.90;;;;;;5015715;28;20049;-77
2022/07/24 07:25:48;;;;;;;17.40;12.10;;;19.20;99.90;;;;;;5019610;28;20177;-81
2022/07/24 07:28:13;;;;;;;16.42;11.68;;;19.50;99.90;;;;;;5012668;28;20053;-83
2022/07/24 07:30:39;;;;;;;15.82;10.77;;;19.80;99.90;;;;;;5000019;28;20050;-83
2022/07/24 07:33:04;;;;;;;13.77;10.73;;;20.10;99.90;;;;;;5017839;28;20128;-82
2022/07/24 07:35:30;;;;;;;15.90;11.48;;;20.50;99.90;;;;;;5007645;28;20041;-84
2022/07/24 07:37:55;;;;;;;18.08;11.40;;;21.00;99.90;;;;;;5004074;28;20037;-85
2022/07/24 07:40:21;;;;;;;19.63;11.18;;;20.90;99.90;;;;;;5013884;28;20062;-87
2022/07/24 07:42:47;;;;;;;15.95;10.65;;;21.20;99.90;;;;;;5016581;28;20079;-85
2022/07/24 07:45:15;;;;;;;17.23;10.35;;;21.50;99.90;;;;;;4994092;28;20074;-90
2022/07/24 07:47:44;;;;;;;14.65;10.63;;;21.90;99.90;;;;;;4992709;28;20046;-88
2022/07/24 07:50:10;;;;;;;15.25;9.65;;;22.20;99.90;;;;;;4988783;28;20056;-84
2022/07/24 07:52:36;;;;;;;14.77;10.18;;;22.40;99.90;;;;;;4993384;28;20034;-89
2022/07/24 07:55:03;;;;;;;14.07;9.55;;;22.50;99.90;;;;;;4990463;28;20166;-90
2022/07/24 07:57:29;;;;;;;10.05;8.32;;;22.50;99.90;;;;;;4997633;28;20116;-86
2022/07/24 07:59:54;;;;;;;13.55;9.35;;;22.50;99.90;;;;;;4998358;28;20485;-87
2022/07/24 08:02:20;;;;;;;11.93;8.27;;;22.40;99.90;;;;;;5008922;28;20038;-87
2022/07/24 08:04:45;;;;;;;11.95;7.90;;;22.40;99.90;;;;;;4993237;28;20092;-86
2022/07/24 08:07:11;;;;;;;10.60;6.45;;;22.60;99.90;;;;;;5000840;28;20041;-86
2022/07/24 08:09:37;;;;;;;10.63;6.35;;;22.40;99.90;;;;;;5009231;28;20054;-86
2022/07/24 08:12:04;;;;;;;7.68;4.63;;;22.30;99.90;;;;;;5004613;28;20030;-87
2022/07/24 08:14:30;;;;;;;8.02;4.53;;;22.50;99.90;;;;;;5009702;28;20436;-86
2022/07/24 08:16:56;;;;;;;6.05;4.53;;;22.90;99.90;;;;;;5008422;28;20397;-87
2022/07/24 08:19:21;;;;;;;7.95;3.53;;;22.70;99.90;;;;;;5007972;28;20046;-87
2022/07/24 08:21:47;;;;;;;5.20;3.40;;;22.70;99.90;;;;;;5001584;28;20121;-87
2022/07/24 08:24:13;;;;;;;7.20;3.72;;;22.70;99.90;;;;;;5005841;28;20042;-87
2022/07/24 08:26:38;;;;;;;6.13;3.58;;;22.80;99.90;;;;;;5004356;28;20047;-86
2022/07/24 08:29:05;;;;;;;6.90;3.80;;;22.90;99.90;;;;;;5002959;28;20145;-86
2022/07/24 08:31:31;;;;;;;6.38;3.40;;;23.00;99.90;;;;;;5012284;28;20053;-86
2022/07/24 08:33:56;;;;;;;6.47;3.70;;;23.10;99.90;;;;;;5007044;28;20045;-87
2022/07/24 08:36:22;;;;;;;8.95;3.50;;;23.40;99.90;;;;;;5010848;28;20046;-86
2022/07/24 08:38:48;;;;;;;5.78;3.03;;;23.40;99.90;;;;;;4997185;28;20062;-83
2022/07/24 08:41:13;;;;;;;6.38;3.63;;;23.50;99.90;;;;;;4987557;28;20039;-88
2022/07/24 08:43:39;;;;;;;6.53;3.17;;;23.70;99.90;;;;;;4998141;28;20061;-86
2022/07/24 08:46:09;;;;;;;6.47;4.05;;;23.70;99.90;;;;;;5024766;28;20405;-89
2022/07/24 08:48:34;;;;;;;5.95;3.30;;;23.90;99.90;;;;;;5003463;28;20188;-88
2022/07/24 08:51:02;;;;;;;5.15;3.13;;;24.00;99.90;;;;;;5004112;28;20547;-84
2022/07/24 08:53:27;;;;;;;7.30;3.08;;;24.20;99.90;;;;;;5018472;28;20093;-79
2022/07/24 08:55:53;;;;;;;8.32;3.70;;;24.30;99.90;;;;;;5025409;28;20142;-80
2022/07/24 08:58:19;;;;;;;11.23;3.55;;;24.30;99.90;;;;;;5024011;28;20085;-81
2022/07/24 09:00:44;;;;;;;5.55;3.17;;;24.30;99.90;;;;;;5007119;28;20056;-82
2022/07/24 09:03:12;;;;;;;13.75;4.05;;;24.20;99.90;;;;;;5004507;28;20142;-82
2022/07/24 09:05:56;;;;;;;9.27;3.28;;;24.20;99.90;;;;;;5011353;28;20171;-76
2022/07/24 09:08:21;;;;;;;7.75;3.40;;;24.10;99.90;;;;;;5024133;28;20046;-85
2022/07/24 09:11:18;;;;;;;6.57;3.17;;;24.10;99.90;;;;;;5002915;28;20052;-86
2022/07/24 09:16:32;;;;;;;7.75;3.30;;;24.40;99.90;;;;;;5009142;28;20088;-86
2022/07/24 09:19:07;;;;;;;6.20;3.22;;;24.50;99.90;;;;;;5032588;28;20050;-88
2022/07/24 09:21:35;;;;;;;5.50;3.08;;;24.60;99.90;;;;;;5005768;28;20038;-91
2022/07/24 09:24:12;;;;;;;6.13;3.67;;;24.70;99.90;;;;;;5018931;28;20033;-87
2022/07/24 09:26:47;;;;;;;5.60;3.08;;;24.70;99.90;;;;;;5023363;28;20424;-82
2022/07/24 09:29:14;;;;;;;6.88;3.28;;;24.80;99.90;;;;;;5012094;28;20049;-87
2022/07/24 09:32:21;;;;;;;8.57;2.95;;;24.80;99.90;;;;;;4997541;28;20108;-88
2022/07/24 09:34:52;;;;;;;6.82;2.92;;;24.60;99.90;;;;;;4950124;28;20120;-87
2022/07/24 09:37:17;;;;;;;6.28;3.10;;;24.60;99.90;;;;;;5018427;28;20453;-87
2022/07/24 09:39:43;;;;;;;5.20;2.75;;;25.00;99.90;;;;;;5011048;28;20134;-88
2022/07/24 09:42:10;;;;;;;6.03;2.80;;;24.80;99.90;;;;;;4997381;28;20060;-88
2022/07/24 09:44:36;;;;;;;4.45;3.00;;;24.90;99.90;;;;;;5024769;28;20137;-91
2022/07/24 09:47:11;;;;;;;7.70;2.90;;;25.10;99.90;;;;;;4999603;28;20133;-91
2022/07/24 09:49:38;;;;;;;5.10;2.55;;;25.30;99.90;;;;;;5023582;28;20453;-83
2022/07/24 09:52:15;;;;;;;8.10;2.88;;;25.30;99.90;;;;;;5021329;28;20494;-89
2022/07/24 09:54:41;;;;;;;5.85;3.08;;;25.30;99.40;;;;;;4996923;28;20504;-82
2022/07/24 09:57:18;;;;;;;4.75;2.83;;;25.30;99.70;;;;;;5008927;28;20041;-84
2022/07/24 09:59:50;;;;;;;6.82;3.08;;;25.20;99.00;;;;;;5020782;28;20445;-92
2022/07/24 10:02:18;;;;;;;5.28;2.72;;;25.20;99.70;;;;;;4995427;28;20395;-92
2022/07/24 10:04:45;;;;;;;4.85;2.95;;;25.30;99.90;;;;;;5002791;28;20045;-91
2022/07/24 10:07:13;;;;;;;4.72;2.63;;;25.40;99.90;;;;;;5003196;28;20198;-89
2022/07/24 10:09:42;;;;;;;4.60;2.65;;;25.30;99.90;;;;;;5013647;28;20056;-90
2022/07/24 10:12:15;;;;;;;6.65;2.92;;;25.40;99.90;;;;;;4991850;28;20046;-78
2022/07/24 10:14:42;;;;;;;6.88;3.35;;;25.50;99.90;;;;;;5006343;28;20121;-91
2022/07/24 10:17:10;;;;;;;5.50;3.10;;;25.30;99.70;;;;;;5021239;28;20575;-90
2022/07/24 10:19:50;;;;;;;4.28;2.50;;;25.50;99.90;;;;;;5010859;28;20038;-90
2022/07/24 10:22:17;;;;;;;5.32;2.80;;;25.60;99.20;;;;;;5021851;28;20038;-92
2022/07/24 10:25:08;;;;;;;5.88;2.60;;;25.80;99.70;;;;;;5020652;28;20406;-91
2022/07/24 10:27:37;;;;;;;4.72;2.50;;;25.70;98.80;;;;;;5015905;28;20052;-88
2022/07/24 10:30:08;;;;;;;6.95;2.92;;;25.70;99.20;;;;;;5021636;28;20034;-88
2022/07/24 10:32:35;;;;;;;5.20;2.90;;;25.90;99.30;;;;;;5022914;28;20029;-90
2022/07/24 10:35:11;;;;;;;5.65;2.60;;;26.00;98.50;;;;;;5026649;28;20049;-91
2022/07/24 10:37:37;;;;;;;5.18;2.65;;;26.00;98.30;;;;;;5001013;28;20147;-90
2022/07/24 10:40:03;;;;;;;7.50;2.50;;;25.90;98.50;;;;;;5026241;28;20045;-91
2022/07/24 10:42:29;;;;;;;5.63;2.53;;;26.10;98.40;;;;;;5007773;28;20120;-92
2022/07/24 10:45:15;;;;;;;4.25;2.47;;;26.10;98.10;;;;;;4992291;28;20063;-92
2022/07/24 10:47:40;;;;;;;5.43;2.30;;;26.10;98.10;;;;;;5016412;28;20049;-84
2022/07/24 10:50:06;;;;;;;5.55;2.40;;;26.10;98.10;;;;;;4997992;28;20116;-77
2022/07/24 10:52:33;;;;;;;6.20;2.58;;;26.20;97.90;;;;;;4992584;28;20050;-87
2022/07/24 10:55:26;;;;;;;5.88;2.60;;;26.20;97.40;;;;;;4996515;28;20121;-86
2022/07/24 10:57:59;;;;;;;5.70;2.50;;;26.20;97.10;;;;;;4995107;28;20042;-87
2022/07/24 11:00:29;;;;;;;5.07;2.00;;;26.20;97.10;;;;;;5008442;28;20049;-86
2022/07/24 11:03:06;;;;;;;5.47;2.72;;;26.20;97.50;;;;;;5005784;28;20096;-86
2022/07/24 11:05:37;;;;;;;5.53;2.40;;;26.10;97.60;;;;;;4995052;28;20049;-85
2022/07/24 11:08:11;;;;;;;6.60;2.58;;;26.20;97.80;;;;;;5003011;28;20042;-87
2022/07/24 11:10:49;;;;;;;5.45;2.35;;;26.00;97.10;;;;;;4992858;28;20052;-85
2022/07/24 11:13:38;;;;;;;4.72;2.25;;;26.10;97.20;;;;;;4998417;28;20485;-86
2022/07/24 11:16:15;;;;;;;4.53;2.20;;;26.10;97.40;;;;;;4983776;28;20093;-90
2022/07/24 11:18:42;;;;;;;4.15;1.95;;;26.20;97.30;;;;;;4991756;28;20204;-90
2022/07/24 11:21:08;;;;;;;4.53;2.13;;;26.30;97.60;;;;;;5001764;28;20563;-87
2022/07/24 11:23:34;;;;;;;5.25;2.38;;;26.40;97.60;;;;;;5003919;28;20050;-88
2022/07/24 11:26:40;;;;;;;4.43;2.30;;;26.60;97.70;;;;;;5000171;28;20410;-87
2022/07/24 11:29:24;;;;;;;7.82;2.47;;;26.70;97.30;;;;;;4998939;28;20515;-85
2022/07/24 11:32:00;;;;;;;4.38;2.30;;;26.90;96.20;;;;;;4988676;28;20042;-85
2022/07/24 11:34:28;;;;;;;5.28;2.42;;;26.80;96.40;;;;;;4998865;28;20153;-85
2022/07/24 11:36:55;;;;;;;7.90;2.30;;;26.70;96.50;;;;;;5002247;28;20095;-83
2022/07/24 11:39:28;;;;;;;4.45;2.50;;;26.60;96.90;;;;;;5008701;28;20145;-86
2022/07/24 11:41:57;;;;;;;6.97;2.43;;;26.60;96.50;;;;;;4989372;28;20428;-85
2022/07/24 11:44:25;;;;;;;5.82;2.55;;;26.70;96.40;;;;;;5000576;28;20062;-79
2022/07/24 11:46:51;;;;;;;5.32;2.38;;;26.80;95.80;;;;;;4999363;28;20038;-83
2022/07/24 11:49:17;;;;;;;4.47;2.40;;;26.90;96.20;;;;;;4996037;28;20445;-90
2022/07/24 11:51:48;;;;;;;4.88;2.20;;;27.00;96.30;;;;;;4993470;28;20038;-89
2022/07/24 11:54:20;;;;;;;4.35;2.33;;;27.10;96.20;;;;;;5003113;28;20053;-84
2022/07/24 11:56:48;;;;;;;5.03;2.33;;;27.20;96.30;;;;;;4994840;28;20144;-84
2022/07/24 11:59:25;;;;;;;4.20;2.30;;;27.30;95.30;;;;;;4997091;28;20072;-82
2022/07/24 12:01:54;;;;;;;4.57;2.40;;;27.40;95.20;;;;;;4993316;28;20401;-83
2022/07/24 12:04:21;;;;;;;7.38;2.60;;;27.30;94.90;;;;;;4990096;28;20046;-86
2022/07/24 12:06:47;;;;;;;4.75;2.45;;;27.50;95.00;;;;;;5004965;28;20548;-78
2022/07/24 12:09:13;;;;;;;6.05;2.40;;;27.50;94.80;;;;;;5001847;28;20046;-87
2022/07/24 12:11:38;;;;;;;4.35;2.13;;;27.50;94.50;;;;;;5005233;28;20038;-79
2022/07/24 12:14:18;;;;;;;4.90;2.33;;;27.50;94.30;;;;;;5004941;28;20489;-85
2022/07/24 12:16:54;;;;;;;5.95;1.98;;;27.50;94.40;;;;;;5012409;28;20092;-84
2022/07/24 12:19:24;;;;;;;4.20;2.15;;;27.50;94.50;;;;;;5012007;28;20086;-84
2022/07/24 12:21:52;;;;;;;4.78;2.05;;;27.60;94.30;;;;;;5012526;28;20045;-84
2022/07/24 12:24:19;;;;;;;4.15;2.30;;;27.60;94.20;;;;;;5003545;28;20710;-83
2022/07/24 12:26:55;;;;;;;3.80;1.77;;;27.70;94.10;;;;;;5001413;28;20053;-85
2022/07/24 12:29:22;;;;;;;4.68;2.55;;;27.70;94.10;;;;;;5007520;28;20108;-88
2022/07/24 12:31:49;;;;;;;5.15;2.40;;;27.80;94.50;;;;;;5012720;28;20113;-75
2022/07/24 12:34:18;;;;;;;7.75;2.10;;;27.80;93.70;;;;;;4997265;28;20047;-92
2022/07/24 12:36:44;;;;;;;3.92;1.98;;;27.90;94.00;;;;;;4997377;28;20120;-91
2022/07/24 12:39:11;;;;;;;4.57;2.10;;;28.00;93.90;;;;;;5011122;28;20113;-88
2022/07/24 12:41:49;;;;;;;3.85;2.00;;;28.00;93.80;;;;;;4999099;28;20045;-89
2022/07/24 12:44:15;;;;;;;3.55;1.80;;;28.10;93.90;;;;;;5003102;28;20062;-88
2022/07/24 12:46:42;;;;;;;3.75;2.28;;;28.10;93.30;;;;;;5013416;28;20046;-88
2022/07/24 12:49:13;;;;;;;4.22;2.05;;;28.10;93.80;;;;;;5015240;28;20570;-89